Time;durP1;ratioP1;P1;durP2;ratioP2;P2;SDS_P1;SDS_P2;PMS_P1;PMS_P2;Temp;Humidity;BMP_temperature;BMP_pressure;BME280_temperature;BME280_humidity;BME280_pressure;Samples;Min_cycle;Max_cycle;Signal;HPM_P1;HPM_P2
2022/06/05 00:00:12;;;;;;;5.00;3.40;;;;;;;13.80;68.28;101376.66;108148;1280;60914;-85
2022/06/05 00:03:16;;;;;;;7.10;3.60;;;;;;;13.76;68.86;101377.57;108349;1280;60629;-85
2022/06/05 00:05:53;;;;;;;5.60;3.10;;;;;;;13.68;69.34;101379.02;108514;1280;74941;-86
2022/06/05 00:08:36;;;;;;;7.00;3.90;;;;;;;13.63;69.63;101374.80;108428;1280;72285;-84
2022/06/05 00:11:10;;;;;;;5.40;3.20;;;;;;;13.56;69.96;101378.05;108336;1281;72963;-84
2022/06/05 00:13:52;;;;;;;5.50;3.70;;;;;;;13.50;70.28;101375.80;108260;1281;62057;-83
2022/06/05 00:16:27;;;;;;;4.30;3.10;;;;;;;13.42;70.69;101373.13;108359;1280;61177;-83
2022/06/05 00:18:54;;;;;;;6.30;3.80;;;;;;;13.35;71.24;101367.71;108299;1280;74923;-84
2022/06/05 00:21:23;;;;;;;6.40;3.80;;;;;;;13.29;71.65;101359.86;108299;1280;70176;-85
2022/06/05 00:23:51;;;;;;;5.30;3.60;;;;;;;13.24;72.32;101363.25;108142;1281;72678;-84
2022/06/05 00:26:34;;;;;;;5.90;3.30;;;;;;;13.20;72.40;101360.54;108062;1280;61033;-85
2022/06/05 00:29:21;;;;;;;5.60;3.80;;;;;;;13.16;73.21;101361.46;107915;1281;61494;-84
2022/06/05 00:32:19;;;;;;;8.90;3.50;;;;;;;13.13;73.39;101352.09;108170;1280;75227;-84
2022/06/05 00:34:46;;;;;;;5.70;3.30;;;;;;;13.10;73.92;101349.81;108086;1280;71516;-84
2022/06/05 00:37:38;;;;;;;6.10;3.60;;;;;;;13.06;74.40;101340.40;108078;1281;73907;-84
2022/06/05 00:40:18;;;;;;;6.30;3.70;;;;;;;13.02;74.53;101336.39;107824;1281;63064;-85
2022/06/05 00:42:46;;;;;;;5.90;4.00;;;;;;;12.98;74.61;101329.27;108135;1280;61476;-85
2022/06/05 00:45:19;;;;;;;6.00;4.30;;;;;;;12.93;74.88;101326.80;108093;1280;75119;-85
2022/06/05 00:47:47;;;;;;;9.20;4.20;;;;;;;12.88;75.05;101319.27;108156;1280;71526;-85
2022/06/05 00:50:43;;;;;;;7.40;4.00;;;;;;;12.82;75.47;101317.44;108052;1281;74467;-86
2022/06/05 00:53:10;;;;;;;4.70;3.60;;;;;;;12.76;75.64;101320.09;107994;1279;63437;-85
2022/06/05 00:55:57;;;;;;;7.50;3.90;;;;;;;12.70;75.90;101318.13;108109;1279;61640;-84
2022/06/05 00:58:23;;;;;;;7.00;4.20;;;;;;;12.62;76.27;101319.70;107982;1280;75122;-85
2022/06/05 01:00:53;;;;;;;5.10;4.30;;;;;;;12.56;76.32;101320.11;108070;1280;71337;-84
2022/06/05 01:03:22;;;;;;;6.50;3.80;;;;;;;12.50;76.81;101325.77;108118;1280;72773;-84
2022/06/05 01:05:48;;;;;;;9.00;4.20;;;;;;;12.45;77.10;101323.55;108336;1279;62178;-84
2022/06/05 01:08:19;;;;;;;6.50;4.30;;;;;;;12.38;77.40;101321.08;108445;1279;60523;-84
2022/06/05 01:11:10;;;;;;;5.40;4.20;;;;;;;12.34;77.83;101318.60;108266;1279;76123;-85
2022/06/05 01:14:09;;;;;;;9.40;4.10;;;;;;;12.28;77.94;101311.06;108127;1280;70570;-84
2022/06/05 01:16:47;;;;;;;6.40;4.10;;;;;;;12.21;78.43;101298.83;108010;1280;74633;-84
2022/06/05 01:19:32;;;;;;;7.20;4.60;;;;;;;12.16;78.65;101296.42;107897;1280;62523;-84
2022/06/05 01:22:33;;;;;;;4.90;3.90;;;;;;;12.12;79.00;101295.12;107782;1281;60720;-85
2022/06/05 01:25:11;;;;;;;7.60;4.20;;;;;;;12.07;79.35;101292.14;108023;1279;74756;-84
2022/06/05 01:27:43;;;;;;;7.00;4.10;;;;;;;12.02;79.61;101296.54;107907;1281;71793;-84
2022/06/05 01:30:18;;;;;;;5.60;4.10;;;;;;;11.99;80.12;101295.64;108054;1280;72365;-84
2022/06/05 01:33:07;;;;;;;5.90;4.00;;;;;;;11.95;80.26;101292.57;108054;1279;62206;-85
2022/06/05 01:35:44;;;;;;;6.30;4.70;;;;;;;11.93;80.62;101291.94;108064;1281;61111;-84
2022/06/05 01:38:16;;;;;;;6.40;4.70;;;;;;;11.89;80.79;101291.30;107998;1280;74817;-84
2022/06/05 01:40:49;;;;;;;9.60;4.50;;;;;;;11.86;81.10;101297.23;108034;1280;71343;-84
2022/06/05 01:43:23;;;;;;;7.10;4.30;;;;;;;11.83;81.39;101301.66;108005;1280;74086;-85
2022/06/05 01:46:00;;;;;;;5.30;3.80;;;;;;;11.79;81.70;101306.11;107950;1280;62494;-85
2022/06/05 01:48:37;;;;;;;5.60;4.40;;;;;;;11.77;81.93;101312.36;108031;1280;61818;-84
2022/06/05 01:51:17;;;;;;;6.90;5.10;;;;;;;11.74;82.21;101310.38;107995;1280;77063;-84
2022/06/05 01:53:47;;;;;;;8.20;4.50;;;;;;;11.73;82.47;101306.81;108033;1280;72119;-85
2022/06/05 01:56:25;;;;;;;5.10;3.80;;;;;;;11.70;82.71;101300.38;107960;1280;73366;-85
2022/06/05 01:59:04;;;;;;;6.50;4.80;;;;;;;11.69;83.18;101285.48;107953;1279;63365;-85
2022/06/05 02:01:56;;;;;;;11.00;4.50;;;;;;;11.67;83.13;101281.27;107966;1281;61367;-85
2022/06/05 02:04:37;;;;;;;6.60;4.30;;;;;;;11.64;83.24;101282.08;107853;1280;75468;-84
2022/06/05 02:07:13;;;;;;;6.60;4.40;;;;;;;11.62;83.46;101284.90;107778;1281;72389;-85
2022/06/05 02:09:47;;;;;;;7.10;4.50;;;;;;;11.62;84.03;101281.44;108017;1281;73123;-85
2022/06/05 02:12:14;;;;;;;6.50;4.00;;;;;;;11.60;84.18;101285.34;108021;1277;63051;-84
2022/06/05 02:14:42;;;;;;;5.90;4.30;;;;;;;11.59;84.22;101287.23;108057;1279;59149;-85
2022/06/05 02:17:11;;;;;;;8.10;4.60;;;;;;;11.57;84.32;101287.76;107943;1280;75816;-83
2022/06/05 02:19:38;;;;;;;6.10;4.00;;;;;;;11.56;84.36;101291.98;108031;1280;72981;-84
2022/06/05 02:22:11;;;;;;;6.60;4.30;;;;;;;11.54;84.88;101291.13;107973;1280;72943;-83
2022/06/05 02:24:38;;;;;;;5.60;3.90;;;;;;;11.52;84.68;101288.90;107968;1280;62537;-85
2022/06/05 02:27:06;;;;;;;6.20;3.90;;;;;;;11.49;84.96;101284.08;107834;1281;60710;-84
2022/06/05 02:29:33;;;;;;;7.40;4.80;;;;;;;11.50;85.41;101286.67;107704;1279;74929;-85
2022/06/05 02:32:14;;;;;;;7.90;4.60;;;;;;;11.48;85.30;101286.67;108012;1280;70575;-84
2022/06/05 02:35:13;;;;;;;5.30;4.00;;;;;;;11.47;85.36;101282.19;107911;1280;73422;-84
2022/06/05 02:37:50;;;;;;;7.60;4.30;;;;;;;11.44;85.19;101275.91;108009;1280;63263;-84
2022/06/05 02:40:26;;;;;;;7.70;4.10;;;;;;;11.42;85.59;101269.39;108016;1281;59900;-84
2022/06/05 02:43:19;;;;;;;6.80;4.20;;;;;;;11.41;85.67;101267.20;108037;1280;75273;-85
2022/06/05 02:46:10;;;;;;;6.50;4.20;;;;;;;11.39;85.87;101270.05;108026;1279;71555;-84
2022/06/05 02:49:07;;;;;;;6.60;4.60;;;;;;;11.39;86.01;101273.11;108043;1280;72735;-84
2022/06/05 02:51:39;;;;;;;5.80;4.10;;;;;;;11.37;86.20;101273.46;107932;1279;62304;-83
2022/06/05 02:54:06;;;;;;;8.00;4.40;;;;;;;11.36;86.30;101271.66;108025;1281;61826;-85
2022/06/05 02:56:33;;;;;;;6.10;4.20;;;;;;;11.35;86.21;101267.20;107866;1279;75088;-85
2022/06/05 02:59:02;;;;;;;6.60;4.40;;;;;;;11.33;86.12;101270.33;107995;1279;71478;-84
2022/06/05 03:04:16;;;;;;;;;;;;;;;11.31;86.49;101265.61;108064;1280;60982;-84
2022/06/05 03:06:44;;;;;;;5.30;4.20;;;;;;;11.29;86.25;101265.68;108040;1280;62657;-85
2022/06/05 03:09:10;;;;;;;8.00;4.80;;;;;;;11.28;86.39;101265.80;108042;1280;75184;-84
2022/06/05 03:11:40;;;;;;;6.20;4.50;;;;;;;11.28;86.50;101267.08;108022;1280;72580;-85
2022/06/05 03:14:07;;;;;;;7.80;4.70;;;;;;;11.27;86.80;101267.27;107898;1281;73994;-85
2022/06/05 03:16:34;;;;;;;8.10;4.60;;;;;;;11.28;86.86;101272.22;108026;1280;62271;-85
2022/06/05 03:19:01;;;;;;;6.80;4.40;;;;;;;11.27;86.84;101272.94;107993;1280;62634;-86
2022/06/05 03:21:37;;;;;;;8.50;4.40;;;;;;;11.27;86.70;101266.94;107946;1279;74879;-85
2022/06/05 03:24:07;;;;;;;6.30;4.50;;;;;;;11.28;86.89;101269.66;107630;1281;72520;-85
2022/06/05 03:26:35;;;;;;;7.90;4.60;;;;;;;11.29;86.85;101266.98;108042;1280;72810;-85
2022/06/05 03:29:07;;;;;;;7.50;4.50;;;;;;;11.30;86.83;101266.84;108048;1279;62403;-87
2022/06/05 03:31:35;;;;;;;7.30;4.10;;;;;;;11.31;86.85;101264.72;108045;1280;60475;-84
2022/06/05 03:34:02;;;;;;;6.30;4.20;;;;;;;11.34;86.71;101262.54;108017;1280;75005;-85
2022/06/05 03:36:29;;;;;;;6.00;4.40;;;;;;;11.36;86.65;101258.58;107963;1279;71209;-84
2022/06/05 03:38:56;;;;;;;9.80;4.60;;;;;;;11.38;86.66;101256.56;107660;1280;71585;-84
2022/06/05 03:41:23;;;;;;;5.80;4.10;;;;;;;11.41;86.70;101253.60;107937;1279;60911;-84
2022/06/05 03:43:50;;;;;;;5.00;3.10;;;;;;;11.45;86.56;101252.64;107983;1280;60545;-84
2022/06/05 03:46:17;;;;;;;5.90;3.80;;;;;;;11.50;86.55;101257.58;107926;1281;76863;-84
2022/06/05 03:48:44;;;;;;;6.10;4.40;;;;;;;11.55;86.39;101265.20;107936;1279;72624;-84
2022/06/05 03:51:19;;;;;;;7.10;4.00;;;;;;;11.59;86.18;101263.45;107894;1281;72959;-84
2022/06/05 03:53:45;;;;;;;;;;;;;;;11.65;86.01;101264.11;107974;1280;62265;-84
2022/06/05 03:56:19;;;;;;;4.10;3.20;;;;;;;11.69;85.96;101257.42;107805;1281;60424;-84
2022/06/05 03:58:47;;;;;;;4.00;3.20;;;;;;;11.74;85.67;101249.44;107871;1281;74772;-84
2022/06/05 04:01:17;;;;;;;7.90;4.70;;;;;;;11.80;85.37;101239.20;107691;1280;71311;-84
2022/06/05 04:03:47;;;;;;;5.40;3.50;;;;;;;11.87;85.05;101230.00;107901;1281;71933;-84
2022/06/05 04:06:18;;;;;;;5.90;3.50;;;;;;;11.93;84.85;101223.32;107945;1280;63261;-84
2022/06/05 04:08:45;;;;;;;5.40;3.70;;;;;;;12.00;84.62;101215.08;107933;1279;60485;-84
2022/06/05 04:11:17;;;;;;;6.10;4.00;;;;;;;12.07;84.42;101210.05;107857;1280;75332;-84
2022/06/05 04:13:45;;;;;;;4.50;3.70;;;;;;;12.15;83.85;101206.94;107819;1280;72543;-85
2022/06/05 04:16:17;;;;;;;5.20;4.10;;;;;;;12.25;83.55;101203.97;107776;1280;71674;-84
2022/06/05 04:18:44;;;;;;;7.40;3.80;;;;;;;12.33;83.27;101198.08;107747;1281;61339;-84
2022/06/05 04:21:14;;;;;;;5.30;3.70;;;;;;;12.42;82.79;101191.41;107935;1280;60633;-84
2022/06/05 04:23:48;;;;;;;4.90;3.40;;;;;;;12.50;82.37;101190.08;107955;1279;76202;-84
2022/06/05 04:26:18;;;;;;;5.60;3.80;;;;;;;12.59;81.90;101192.13;107993;1279;71525;-84
2022/06/05 04:28:45;;;;;;;5.50;3.60;;;;;;;12.68;81.65;101189.86;107992;1280;74330;-84
2022/06/05 04:31:36;;;;;;;4.30;3.10;;;;;;;12.77;81.24;101185.45;107751;1281;62654;-83
2022/06/05 04:34:06;;;;;;;8.00;4.90;;;;;;;12.87;80.91;101181.09;107754;1281;61529;-84
2022/06/05 04:36:33;;;;;;;6.80;3.80;;;;;;;12.95;80.61;101185.05;107632;1281;76049;-85
2022/06/05 04:39:00;;;;;;;5.90;3.10;;;;;;;13.04;80.14;101177.12;107925;1279;72382;-85
2022/06/05 04:41:27;;;;;;;5.50;3.30;;;;;;;13.14;79.85;101183.11;107986;1279;71799;-84
2022/06/05 04:43:55;;;;;;;5.10;2.80;;;;;;;13.23;79.44;101178.79;108011;1279;62195;-84
2022/06/05 04:46:24;;;;;;;5.60;3.40;;;;;;;13.32;78.96;101180.34;107980;1279;61340;-84
2022/06/05 04:48:51;;;;;;;5.30;3.10;;;;;;;13.42;78.50;101175.20;107969;1281;75639;-84
2022/06/05 04:51:19;;;;;;;5.50;3.60;;;;;;;13.52;78.07;101174.25;108001;1279;73765;-85
2022/06/05 04:53:47;;;;;;;6.70;3.80;;;;;;;13.63;77.87;101166.70;107991;1281;71979;-85
2022/06/05 04:56:16;;;;;;;5.20;3.50;;;;;;;13.74;77.68;101164.59;107801;1281;62023;-84
2022/06/05 04:58:43;;;;;;;5.40;3.80;;;;;;;13.85;76.84;101168.08;107976;1281;60385;-83
2022/06/05 05:01:20;;;;;;;5.10;3.20;;;;;;;13.98;76.68;101166.55;108311;1279;75998;-82
2022/06/05 05:03:52;;;;;;;4.00;3.00;;;;;;;14.11;75.95;101164.99;107773;1280;72546;-83
2022/06/05 05:06:19;;;;;;;5.50;3.30;;;;;;;14.22;75.46;101162.41;107944;1280;73922;-83
2022/06/05 05:08:46;;;;;;;5.20;3.20;;;;;;;14.32;74.71;101160.71;107998;1279;62419;-84
2022/06/05 05:11:13;;;;;;;5.30;3.40;;;;;;;14.42;74.56;101160.27;107995;1279;60299;-83
2022/06/05 05:13:41;;;;;;;5.80;3.80;;;;;;;14.54;74.08;101164.51;107982;1279;73033;-83
2022/06/05 05:16:09;;;;;;;4.60;3.50;;;;;;;14.65;73.74;101168.30;107986;1279;71365;-83
2022/06/05 05:18:36;;;;;;;5.30;3.60;;;;;;;14.77;73.17;101164.95;107870;1281;73628;-83
2022/06/05 05:21:09;;;;;;;5.30;2.70;;;;;;;14.89;73.01;101163.09;108183;1279;62974;-84
2022/06/05 05:23:35;;;;;;;5.80;3.60;;;;;;;15.02;72.51;101161.73;108553;1280;60613;-83
2022/06/05 05:26:15;;;;;;;4.60;3.10;;;;;;;15.16;72.20;101158.30;108537;1279;75063;-83
2022/06/05 05:28:43;;;;;;;4.50;2.90;;;;;;;15.30;71.54;101163.59;108216;1281;71372;-83
2022/06/05 05:31:12;;;;;;;5.20;3.50;;;;;;;15.42;70.79;101166.59;108069;1281;72718;-84
2022/06/05 05:33:40;;;;;;;4.10;3.20;;;;;;;15.54;70.58;101168.98;108310;1279;61972;-83
2022/06/05 05:36:13;;;;;;;4.80;3.70;;;;;;;15.67;70.18;101170.37;108154;1279;60894;-84
2022/06/05 05:42:04;;;;;;;5.90;2.90;;;;;;;15.81;70.03;101167.77;108372;1281;75409;-84
2022/06/05 05:44:13;;;;;;;;;;;;;;;16.10;68.75;101165.17;107838;1280;74061;-84
2022/06/05 05:46:40;;;;;;;4.80;3.20;;;;;;;16.24;68.45;101163.49;107501;1283;61976;-84
2022/06/05 05:49:08;;;;;;;4.60;3.20;;;;;;;16.37;67.72;101167.00;107955;1281;61687;-84
2022/06/05 05:51:36;;;;;;;4.60;3.40;;;;;;;16.50;67.60;101164.15;107869;1280;77775;-84
2022/06/05 05:54:03;;;;;;;6.20;3.90;;;;;;;16.65;67.39;101166.45;107913;1280;71485;-83
2022/06/05 05:56:30;;;;;;;4.80;2.90;;;;;;;16.82;66.91;101168.72;107985;1279;74223;-85
2022/06/05 05:58:57;;;;;;;6.00;3.40;;;;;;;16.94;66.18;101169.85;107868;1280;62548;-85
2022/06/05 06:01:24;;;;;;;5.60;3.40;;;;;;;17.07;65.74;101172.94;107894;1280;60422;-84
2022/06/05 06:03:50;;;;;;;4.90;3.10;;;;;;;17.20;65.51;101172.57;107980;1280;75998;-84
2022/06/05 06:06:22;;;;;;;5.70;3.20;;;;;;;17.33;65.32;101170.01;108036;1280;71493;-84
2022/06/05 06:08:49;;;;;;;5.80;3.60;;;;;;;17.47;65.00;101167.75;107964;1281;72434;-85
2022/06/05 06:11:15;;;;;;;4.90;2.80;;;;;;;17.63;64.76;101167.85;107808;1280;63230;-85
2022/06/05 06:13:43;;;;;;;5.90;3.30;;;;;;;17.76;64.17;101166.78;107981;1280;62162;-85
2022/06/05 06:16:10;;;;;;;4.00;3.00;;;;;;;17.89;63.94;101164.02;107819;1281;75344;-85
2022/06/05 06:18:37;;;;;;;4.80;3.20;;;;;;;18.00;63.56;101158.14;107995;1279;72138;-85
2022/06/05 06:21:06;;;;;;;4.80;3.90;;;;;;;18.12;62.97;101162.89;107849;1281;74448;-85
2022/06/05 06:23:33;;;;;;;4.20;3.00;;;;;;;18.22;62.64;101163.29;108383;1280;59767;-84
2022/06/05 06:26:06;;;;;;;3.80;2.60;;;;;;;18.33;62.83;101159.06;108429;1279;60430;-85
2022/06/05 06:28:33;;;;;;;4.60;3.20;;;;;;;18.42;62.65;101153.27;108304;1280;73668;-86
2022/06/05 06:31:11;;;;;;;4.10;2.90;;;;;;;18.50;62.46;101151.95;107950;1280;72927;-85
2022/06/05 06:33:39;;;;;;;4.80;3.10;;;;;;;18.61;62.04;101147.27;108051;1280;72914;-84
2022/06/05 06:36:10;;;;;;;4.30;3.10;;;;;;;18.73;61.83;101149.14;108015;1281;60761;-85
2022/06/05 06:38:56;;;;;;;6.10;3.30;;;;;;;18.87;61.04;101152.58;108014;1281;62123;-85
2022/06/05 06:41:23;;;;;;;5.70;3.60;;;;;;;18.95;60.82;101145.33;107887;1281;75132;-82
2022/06/05 06:43:50;;;;;;;5.70;3.40;;;;;;;19.02;60.79;101147.09;107929;1281;70839;-84
2022/06/05 06:46:18;;;;;;;5.30;3.00;;;;;;;19.08;60.50;101139.63;108306;1280;72656;-84
2022/06/05 06:48:46;;;;;;;6.00;3.70;;;;;;;19.13;60.14;101141.69;108126;1279;60636;-85
2022/06/05 06:51:16;;;;;;;5.30;3.40;;;;;;;19.22;60.52;101137.35;108241;1281;60748;-85
2022/06/05 06:53:46;;;;;;;6.30;3.40;;;;;;;19.30;60.08;101132.98;108297;1280;77626;-85
2022/06/05 06:56:26;;;;;;;5.60;3.30;;;;;;;19.35;59.77;101132.05;108118;1281;72771;-85
2022/06/05 06:58:55;;;;;;;4.30;3.20;;;;;;;19.43;59.90;101129.98;107864;1281;70546;-86
2022/06/05 07:01:23;;;;;;;6.00;3.40;;;;;;;19.55;59.69;101124.39;108177;1281;59528;-86
2022/06/05 07:03:49;;;;;;;4.70;3.60;;;;;;;19.64;59.18;101117.54;108219;1279;60449;-83
2022/06/05 07:06:17;;;;;;;8.40;4.50;;;;;;;19.72;58.90;101115.23;108184;1280;75777;-82
2022/06/05 07:08:44;;;;;;;4.30;3.20;;;;;;;19.82;59.17;101105.01;108252;1279;72606;-82
2022/06/05 07:11:14;;;;;;;5.50;2.40;;;;;;;19.92;58.93;101098.85;108174;1279;72796;-82
2022/06/05 07:13:47;;;;;;;8.20;5.30;;;;;;;20.01;58.09;101098.84;108202;1279;60725;-83
2022/06/05 07:16:14;;;;;;;5.80;4.90;;;;;;;20.04;58.03;101087.58;108028;1280;60545;-82
2022/06/05 07:18:41;;;;;;;4.70;3.10;;;;;;;20.10;57.87;101088.98;108165;1279;74985;-83
2022/06/05 07:21:27;;;;;;;4.20;3.30;;;;;;;20.14;57.33;101084.07;108046;1281;71735;-82
2022/06/05 07:23:55;;;;;;;5.60;3.70;;;;;;;20.21;57.73;101083.58;108285;1279;74410;-82
2022/06/05 07:26:23;;;;;;;;;;;;;;;20.31;57.60;101076.59;108141;1280;60646;-82
2022/06/05 07:28:49;;;;;;;;;;;;;;;20.40;57.71;101075.73;108062;1281;60548;-82
2022/06/05 07:31:17;;;;;;;;;;;;;;;20.49;57.15;101076.35;108129;1281;59124;-82
2022/06/05 07:33:43;;;;;;;;;;;;;;;20.58;56.98;101076.44;108294;1281;73026;-82
2022/06/05 07:36:13;;;;;;;;;;;;;;;20.69;56.98;101076.50;108401;1280;74336;-83
2022/06/05 07:38:40;;;;;;;;;;;;;;;20.82;56.74;101075.52;108193;1279;60772;-83
2022/06/05 07:41:13;;;;;;;;;;;;;;;20.97;56.76;101076.61;107944;1281;62031;-83
2022/06/05 07:43:40;;;;;;;;;;;;;;;21.11;55.66;101068.73;108248;1280;74390;-82
2022/06/05 07:46:07;;;;;;;6.10;3.40;;;;;;;21.21;55.26;101065.31;108206;1279;71329;-82
2022/06/05 07:48:34;;;;;;;6.10;3.30;;;;;;;21.30;55.22;101067.02;108140;1281;73185;-83
2022/06/05 07:56:38;;;;;;;4.60;3.20;;;;;;;21.71;53.84;101064.44;108220;1280;75200;-82
2022/06/05 07:59:05;;;;;;;4.70;2.80;;;;;;;21.73;53.30;101061.52;108047;1280;71520;-82
2022/06/05 08:01:52;;;;;;;5.30;3.10;;;;;;;21.74;53.60;101065.61;108165;1279;74915;-82
2022/06/05 08:04:19;;;;;;;4.40;3.20;;;;;;;21.76;53.75;101062.33;108127;1279;60789;-82
2022/06/05 08:06:52;;;;;;;5.30;3.00;;;;;;;21.86;53.82;101056.34;108014;1281;60700;-82
2022/06/05 08:09:18;;;;;;;3.50;2.80;;;;;;;21.93;53.56;101059.73;108163;1281;75062;-82
2022/06/05 08:11:45;;;;;;;6.40;3.20;;;;;;;22.07;53.37;101056.96;108208;1279;71409;-82
2022/06/05 08:14:14;;;;;;;4.90;3.00;;;;;;;22.19;53.05;101054.89;108132;1281;73839;-82
2022/06/05 08:16:46;;;;;;;4.00;2.70;;;;;;;22.34;52.27;101052.31;108266;1280;59749;-82
2022/06/05 08:19:16;;;;;;;5.10;3.00;;;;;;;22.44;52.32;101048.48;108064;1280;60818;-82
2022/06/05 08:21:43;;;;;;;6.30;3.20;;;;;;;22.57;52.48;101046.80;108141;1280;75923;-82
2022/06/05 08:24:09;;;;;;;5.10;3.00;;;;;;;22.69;52.23;101044.05;108177;1279;71682;-81
2022/06/05 08:26:37;;;;;;;5.00;3.10;;;;;;;22.75;51.00;101039.39;108134;1280;71910;-82
2022/06/05 08:29:04;;;;;;;3.70;2.50;;;;;;;22.82;51.17;101033.11;108058;1280;60876;-83
2022/06/05 08:31:33;;;;;;;4.40;3.00;;;;;;;22.91;50.97;101023.23;108059;1280;60240;-83
2022/06/05 08:34:01;;;;;;;5.90;3.40;;;;;;;22.98;50.86;101015.75;108159;1280;76550;-82
2022/06/05 08:36:28;;;;;;;4.30;2.60;;;;;;;23.05;51.46;101011.27;108160;1280;71534;-83
2022/06/05 08:41:55;;;;;;;4.10;2.80;;;;;;;23.15;49.55;101009.62;108013;1279;61576;-82
2022/06/05 08:44:42;;;;;;;4.20;2.70;;;;;;;23.18;49.50;101006.52;108003;1279;60745;-83
2022/06/05 08:47:20;;;;;;;5.20;2.80;;;;;;;23.28;50.01;101006.41;108042;1279;75017;-83
2022/06/05 08:49:48;;;;;;;3.40;2.50;;;;;;;23.45;49.55;100995.41;108036;1279;71283;-82
2022/06/05 08:52:42;;;;;;;3.80;2.70;;;;;;;23.56;49.21;100991.55;108028;1280;73102;-82
2022/06/05 08:55:24;;;;;;;8.40;2.60;;;;;;;23.71;48.58;100983.52;108022;1279;61742;-83
2022/06/05 08:58:04;;;;;;;3.60;2.70;;;;;;;23.88;47.91;100990.04;107516;1281;60767;-83
2022/06/05 09:00:42;;;;;;;3.80;2.70;;;;;;;23.96;47.28;100996.85;108049;1280;75180;-83
2022/06/05 09:03:24;;;;;;;3.20;2.20;;;;;;;24.10;47.34;101001.09;108096;1279;72386;-82
2022/06/05 09:05:56;;;;;;;3.50;2.60;;;;;;;24.24;46.30;101002.44;107873;1281;74637;-83
2022/06/05 09:08:33;;;;;;;3.60;2.60;;;;;;;24.39;46.75;100999.46;107690;1280;59699;-82
2022/06/05 09:11:05;;;;;;;4.10;2.60;;;;;;;24.48;45.53;100998.19;107887;1281;61030;-82
2022/06/05 09:14:08;;;;;;;3.70;2.50;;;;;;;24.59;45.57;100990.91;107925;1281;74396;-83
2022/06/05 09:16:54;;;;;;;4.70;2.70;;;;;;;24.67;45.15;100993.55;108002;1280;71603;-83
2022/06/05 09:19:27;;;;;;;3.50;2.30;;;;;;;24.66;45.42;100995.39;107967;1280;74104;-82
2022/06/05 09:22:04;;;;;;;4.50;3.20;;;;;;;24.71;45.29;100996.90;108059;1281;60308;-82
2022/06/05 09:24:44;;;;;;;3.80;2.50;;;;;;;24.77;45.19;100995.69;107811;1281;61198;-82
2022/06/05 09:27:20;;;;;;;2.50;2.10;;;;;;;24.71;44.52;100993.65;107892;1280;74803;-83
2022/06/05 09:30:07;;;;;;;3.80;2.70;;;;;;;24.74;45.02;100983.19;107975;1280;70435;-82
2022/06/05 09:32:51;;;;;;;3.40;2.30;;;;;;;24.79;44.72;100968.94;107562;1279;425992;-82
2022/06/05 09:35:36;;;;;;;3.40;2.80;;;;;;;24.94;45.62;100968.10;107868;1281;59543;-82
2022/06/05 09:38:06;;;;;;;;;;;;;;;25.08;45.18;100963.20;108015;1281;60913;-82
2022/06/05 09:40:39;;;;;;;;;;;;;;;25.13;44.58;100959.05;107725;1281;75553;-82
2022/06/05 09:43:24;;;;;;;4.50;2.60;;;;;;;25.16;44.44;100954.45;108056;1280;73843;-82
2022/06/05 09:46:09;;;;;;;3.00;2.60;;;;;;;25.14;43.97;100955.86;108141;1281;74480;-82
2022/06/05 09:49:00;;;;;;;3.50;2.70;;;;;;;25.11;44.23;100952.04;107785;1281;60537;-82
2022/06/05 09:51:28;;;;;;;2.80;2.10;;;;;;;25.11;44.14;100952.96;108063;1281;60773;-82
2022/06/05 09:54:22;;;;;;;4.00;2.60;;;;;;;25.10;44.16;100946.02;108075;1281;76371;-82
2022/06/05 10:00:15;;;;;;;3.70;2.20;;;;;;;25.07;44.28;100934.82;108109;1280;74347;-82
2022/06/05 10:02:47;;;;;;;4.20;3.10;;;;;;;25.10;43.73;100929.67;108003;1281;62112;-81
2022/06/05 10:05:21;;;;;;;3.90;2.10;;;;;;;25.25;44.68;100925.13;107988;1280;61374;-82
2022/06/05 10:07:55;;;;;;;3.80;2.30;;;;;;;25.49;44.04;100924.75;107898;1281;76021;-81
2022/06/05 10:10:26;;;;;;;4.40;2.30;;;;;;;25.70;43.41;100920.76;107980;1280;71641;-81
2022/06/05 10:13:25;;;;;;;4.70;2.30;;;;;;;25.90;43.07;100917.40;107851;1281;71801;-82
2022/06/05 10:16:07;;;;;;;3.80;2.60;;;;;;;26.10;42.62;100908.98;107556;1280;60526;-83
2022/06/05 10:18:44;;;;;;;2.70;2.30;;;;;;;26.21;41.61;100900.25;107767;1281;62067;-84
2022/06/05 10:21:11;;;;;;;3.00;2.30;;;;;;;26.28;41.55;100898.07;107955;1281;74893;-84
2022/06/05 10:23:47;;;;;;;3.70;2.30;;;;;;;26.38;41.38;100900.27;107959;1281;71626;-84
2022/06/05 10:26:17;;;;;;;4.50;2.60;;;;;;;26.38;40.96;100892.59;107662;1281;74008;-84
2022/06/05 10:28:45;;;;;;;3.70;2.60;;;;;;;26.37;40.52;100890.71;107748;1281;61470;-84
2022/06/05 10:31:21;;;;;;;5.40;2.50;;;;;;;26.40;40.90;100892.54;107750;1280;59757;-84
2022/06/05 10:33:55;;;;;;;4.00;2.50;;;;;;;26.39;41.36;100891.23;107956;1281;73973;-84
2022/06/05 10:37:04;;;;;;;3.70;2.30;;;;;;;26.32;41.02;100883.38;107877;1281;71186;-84
2022/06/05 10:39:49;;;;;;;3.30;2.70;;;;;;;26.37;40.79;100883.91;107999;1279;72151;-84
2022/06/05 10:42:45;;;;;;;3.80;2.70;;;;;;;26.52;40.44;100879.94;107990;1280;62698;-83
2022/06/05 10:45:30;;;;;;;4.30;2.50;;;;;;;26.66;40.58;100880.41;108022;1279;60298;-84
2022/06/05 10:47:56;;;;;;;3.30;2.90;;;;;;;26.76;40.48;100875.14;107813;1281;74967;-84
2022/06/05 10:50:25;;;;;;;3.50;2.20;;;;;;;26.85;40.17;100876.58;107999;1281;59675;-83
2022/06/05 10:53:04;;;;;;;3.50;2.60;;;;;;;26.91;39.60;100871.75;107952;1281;72967;-83
2022/06/05 10:55:59;;;;;;;4.60;2.50;;;;;;;26.98;39.80;100865.67;107946;1280;61629;-83
2022/06/05 10:58:40;;;;;;;3.40;2.40;;;;;;;27.06;40.22;100859.73;107806;1281;60607;-84
2022/06/05 11:01:13;;;;;;;2.80;2.00;;;;;;;27.20;39.90;100859.61;108016;1280;75170;-83
2022/06/05 11:03:55;;;;;;;3.00;2.10;;;;;;;27.37;40.38;100857.66;107712;1281;71431;-83
2022/06/05 11:06:36;;;;;;;3.60;2.30;;;;;;;27.62;39.88;100859.76;108005;1281;73866;-84
2022/06/05 11:09:40;;;;;;;3.80;2.50;;;;;;;27.69;38.50;100848.85;107943;1279;60641;-84
2022/06/05 11:15:39;;;;;;;2.60;2.10;;;;;;;27.70;37.53;100840.56;107984;1279;75108;-83
2022/06/05 11:18:17;;;;;;;4.00;2.40;;;;;;;27.83;38.02;100842.04;108010;1280;73047;-83
2022/06/05 11:20:53;;;;;;;3.90;2.20;;;;;;;27.97;37.04;100829.69;107986;1280;74363;-83
2022/06/05 11:23:23;;;;;;;4.30;2.20;;;;;;;28.03;37.15;100822.11;107904;1281;61677;-83
2022/06/05 11:25:59;;;;;;;3.50;2.60;;;;;;;28.15;37.71;100813.96;107991;1280;61817;-83
2022/06/05 11:28:28;;;;;;;3.30;2.70;;;;;;;28.22;37.75;100809.08;107950;1281;76106;-84
2022/06/05 11:31:33;;;;;;;2.80;2.20;;;;;;;28.32;37.71;100809.49;107991;1280;71403;-83
2022/06/05 11:34:14;;;;;;;4.20;2.60;;;;;;;28.39;37.15;100805.05;107834;1281;73895;-83
2022/06/05 11:36:48;;;;;;;4.30;1.90;;;;;;;28.47;36.98;100803.26;108087;1280;60623;-83
2022/06/05 11:39:24;;;;;;;;;;;;;;;28.51;36.63;100797.28;108177;1280;60336;-82
2022/06/05 11:42:11;;;;;;;3.80;2.30;;;;;;;28.69;36.93;100787.98;107996;1281;74986;-83
2022/06/05 11:45:25;;;;;;;3.90;2.40;;;;;;;28.81;36.67;100779.61;108098;1279;71378;-82
2022/06/05 11:48:03;;;;;;;4.90;2.70;;;;;;;28.85;36.55;100783.77;107932;1280;75280;-82
2022/06/05 11:50:40;;;;;;;3.00;2.70;;;;;;;28.90;35.98;100787.23;108022;1280;60802;-82
2022/06/05 11:53:27;;;;;;;3.90;2.40;;;;;;;28.93;35.80;100783.66;107941;1281;59982;-83
2022/06/05 11:56:00;;;;;;;2.90;2.10;;;;;;;29.11;36.01;100776.34;107992;1280;75239;-83
2022/06/05 11:58:54;;;;;;;3.50;2.20;;;;;;;29.27;35.64;100768.12;107970;1281;71407;-83
2022/06/05 12:01:26;;;;;;;;;;;;;;;29.36;35.43;100762.46;107861;1280;73009;-83
2022/06/05 12:04:00;;;;;;;3.10;2.30;;;;;;;29.54;35.21;100755.29;107813;1281;62850;-84
2022/06/05 12:06:38;;;;;;;4.20;2.70;;;;;;;29.67;34.62;100749.48;108102;1279;60221;-84
2022/06/05 12:09:16;;;;;;;2.80;2.30;;;;;;;29.68;33.84;100742.74;107762;1281;74956;-84
2022/06/05 12:11:53;;;;;;;3.60;2.20;;;;;;;29.67;33.82;100743.70;108022;1281;71387;-84
2022/06/05 12:14:52;;;;;;;5.70;2.40;;;;;;;29.63;34.03;100750.00;108016;1281;73002;-84